sensor_id;sensor_type;location;lat;lon;timestamp;pressure;altitude;pressure_sealevel;temperature;humidity
5883;BME280;2967;51.488;6.618;2023-07-29T00:02:47;100448.06;;;19.93;100.00
5883;BME280;2967;51.488;6.618;2023-07-29T00:07:51;100463.91;;;20.04;100.00
5883;BME280;2967;51.488;6.618;2023-07-29T00:12:54;100448.78;;;19.95;100.00
5883;BME280;2967;51.488;6.618;2023-07-29T00:17:57;100440.38;;;19.90;100.00
5883;BME280;2967;51.488;6.618;2023-07-29T00:23:01;100465.75;;;20.12;100.00
5883;BME280;2967;51.488;6.618;2023-07-29T00:28:04;100358.66;;;19.53;100.00
5883;BME280;2967;51.488;6.618;2023-07-29T00:33:07;100439.88;;;19.95;100.00
5883;BME280;2967;51.488;6.618;2023-07-29T00:38:15;100453.16;;;20.12;100.00
5883;BME280;2967;51.488;6.618;2023-07-29T00:43:17;100441.09;;;20.08;100.00
5883;BME280;2967;51.488;6.618;2023-07-29T00:48:20;100448.28;;;20.08;100.00
5883;BME280;2967;51.488;6.618;2023-07-29T00:53:28;100462.72;;;20.15;100.00
5883;BME280;2967;51.488;6.618;2023-07-29T00:58:33;100434.19;;;20.06;100.00
5883;BME280;2967;51.488;6.618;2023-07-29T01:03:36;100449.28;;;20.15;100.00
5883;BME280;2967;51.488;6.618;2023-07-29T01:08:46;100425.59;;;20.02;100.00
5883;BME280;2967;51.488;6.618;2023-07-29T01:14:02;100436.53;;;20.17;100.00
5883;BME280;2967;51.488;6.618;2023-07-29T01:19:18;100389.72;;;19.95;100.00
5883;BME280;2967;51.488;6.618;2023-07-29T01:24:25;100427.97;;;20.21;100.00
5883;BME280;2967;51.488;6.618;2023-07-29T01:29:30;100355.81;;;19.78;100.00
5883;BME280;2967;51.488;6.618;2023-07-29T01:34:39;100388.34;;;19.91;100.00
5883;BME280;2967;51.488;6.618;2023-07-29T01:39:45;100410.84;;;19.98;100.00
5883;BME280;2967;51.488;6.618;2023-07-29T01:44:48;100418.44;;;20.11;100.00
5883;BME280;2967;51.488;6.618;2023-07-29T01:49:53;100424.97;;;20.16;100.00
5883;BME280;2967;51.488;6.618;2023-07-29T01:54:57;100418.75;;;20.08;100.00
5883;BME280;2967;51.488;6.618;2023-07-29T02:00:02;100358.66;;;19.77;100.00
5883;BME280;2967;51.488;6.618;2023-07-29T02:05:15;100416.25;;;20.14;100.00
5883;BME280;2967;51.488;6.618;2023-07-29T02:10:19;100420.41;;;20.17;100.00
5883;BME280;2967;51.488;6.618;2023-07-29T02:15:21;100400.97;;;20.15;100.00
5883;BME280;2967;51.488;6.618;2023-07-29T02:20:24;100378.78;;;19.89;100.00
5883;BME280;2967;51.488;6.618;2023-07-29T02:25:30;100416.03;;;19.92;100.00
5883;BME280;2967;51.488;6.618;2023-07-29T02:30:33;100394.56;;;19.92;100.00
5883;BME280;2967;51.488;6.618;2023-07-29T02:35:36;100339.03;;;19.68;100.00
5883;BME280;2967;51.488;6.618;2023-07-29T02:40:40;100402.63;;;20.08;100.00
5883;BME280;2967;51.488;6.618;2023-07-29T02:45:43;100408.50;;;20.11;100.00
5883;BME280;2967;51.488;6.618;2023-07-29T02:50:46;100411.69;;;20.07;100.00
5883;BME280;2967;51.488;6.618;2023-07-29T02:55:51;100369.06;;;19.64;100.00
5883;BME280;2967;51.488;6.618;2023-07-29T03:01:00;100420.06;;;19.96;100.00
5883;BME280;2967;51.488;6.618;2023-07-29T03:06:07;100383.31;;;19.80;100.00
5883;BME280;2967;51.488;6.618;2023-07-29T03:11:13;100399.44;;;19.88;100.00
5883;BME280;2967;51.488;6.618;2023-07-29T03:16:17;100418.75;;;20.00;100.00
5883;BME280;2967;51.488;6.618;2023-07-29T03:21:28;100402.78;;;19.90;100.00
5883;BME280;2967;51.488;6.618;2023-07-29T03:26:32;100388.69;;;19.96;100.00
5883;BME280;2967;51.488;6.618;2023-07-29T03:31:37;100367.56;;;19.85;100.00
5883;BME280;2967;51.488;6.618;2023-07-29T03:36:40;100303.97;;;19.38;100.00
5883;BME280;2967;51.488;6.618;2023-07-29T03:41:44;100395.06;;;19.79;100.00
5883;BME280;2967;51.488;6.618;2023-07-29T03:46:47;100396.25;;;19.93;100.00
5883;BME280;2967;51.488;6.618;2023-07-29T03:51:50;100105.22;;;18.04;100.00
5883;BME280;2967;51.488;6.618;2023-07-29T03:56:55;100338.72;;;19.55;100.00
5883;BME280;2967;51.488;6.618;2023-07-29T04:01:58;100394.56;;;19.92;100.00
5883;BME280;2967;51.488;6.618;2023-07-29T04:07:00;100392.06;;;19.74;100.00
5883;BME280;2967;51.488;6.618;2023-07-29T04:12:06;100384.84;;;19.83;100.00
5883;BME280;2967;51.488;6.618;2023-07-29T04:17:09;100398.91;;;19.85;100.00
5883;BME280;2967;51.488;6.618;2023-07-29T04:22:11;100387.69;;;19.65;100.00
5883;BME280;2967;51.488;6.618;2023-07-29T04:27:15;100428.28;;;19.86;100.00
5883;BME280;2967;51.488;6.618;2023-07-29T04:32:18;100431.81;;;19.95;100.00
5883;BME280;2967;51.488;6.618;2023-07-29T04:37:21;100430.28;;;19.76;100.00
5883;BME280;2967;51.488;6.618;2023-07-29T04:42:25;100425.38;;;19.56;100.00
5883;BME280;2967;51.488;6.618;2023-07-29T04:47:28;100446.91;;;19.80;100.00
5883;BME280;2967;51.488;6.618;2023-07-29T04:52:31;100333.25;;;19.15;100.00
5883;BME280;2967;51.488;6.618;2023-07-29T04:57:35;100394.72;;;19.58;100.00
5883;BME280;2967;51.488;6.618;2023-07-29T05:02:38;100392.50;;;19.46;100.00
5883;BME280;2967;51.488;6.618;2023-07-29T05:07:41;100388.81;;;19.31;100.00
5883;BME280;2967;51.488;6.618;2023-07-29T05:12:45;100398.56;;;19.40;100.00
5883;BME280;2967;51.488;6.618;2023-07-29T05:17:48;100440.47;;;19.49;100.00
5883;BME280;2967;51.488;6.618;2023-07-29T05:22:51;100458.09;;;19.59;100.00
5883;BME280;2967;51.488;6.618;2023-07-29T05:27:58;100423.03;;;19.45;100.00
5883;BME280;2967;51.488;6.618;2023-07-29T05:33:02;100430.72;;;19.48;100.00
5883;BME280;2967;51.488;6.618;2023-07-29T05:38:09;100455.56;;;19.58;100.00
5883;BME280;2967;51.488;6.618;2023-07-29T05:43:13;100369.59;;;19.02;100.00
5883;BME280;2967;51.488;6.618;2023-07-29T05:48:16;100402.19;;;19.23;100.00
5883;BME280;2967;51.488;6.618;2023-07-29T05:53:20;100440.78;;;19.38;100.00
5883;BME280;2967;51.488;6.618;2023-07-29T05:58:25;100451.88;;;19.43;100.00
5883;BME280;2967;51.488;6.618;2023-07-29T06:03:28;100486.47;;;19.62;100.00
5883;BME280;2967;51.488;6.618;2023-07-29T06:08:31;100492.13;;;19.59;100.00
5883;BME280;2967;51.488;6.618;2023-07-29T06:13:37;100485.44;;;19.55;100.00
5883;BME280;2967;51.488;6.618;2023-07-29T06:18:40;100501.56;;;19.63;100.00
5883;BME280;2967;51.488;6.618;2023-07-29T06:23:43;100493.84;;;19.68;100.00
5883;BME280;2967;51.488;6.618;2023-07-29T06:28:48;100477.75;;;19.60;100.00
5883;BME280;2967;51.488;6.618;2023-07-29T06:33:50;100480.41;;;19.52;100.00
5883;BME280;2967;51.488;6.618;2023-07-29T06:38:54;100498.50;;;19.50;100.00
5883;BME280;2967;51.488;6.618;2023-07-29T06:43:58;100489.75;;;19.48;100.00
5883;BME280;2967;51.488;6.618;2023-07-29T06:49:01;100490.47;;;19.50;100.00
5883;BME280;2967;51.488;6.618;2023-07-29T06:54:04;100499.22;;;19.68;100.00
5883;BME280;2967;51.488;6.618;2023-07-29T06:59:08;100469.97;;;19.49;100.00
5883;BME280;2967;51.488;6.618;2023-07-29T07:04:10;100504.47;;;19.85;100.00
5883;BME280;2967;51.488;6.618;2023-07-29T07:09:15;100507.34;;;20.00;100.00
5883;BME280;2967;51.488;6.618;2023-07-29T07:14:19;100486.19;;;19.97;100.00
5883;BME280;2967;51.488;6.618;2023-07-29T07:19:22;100511.53;;;19.94;100.00
5883;BME280;2967;51.488;6.618;2023-07-29T07:24:25;100520.72;;;19.84;100.00
5883;BME280;2967;51.488;6.618;2023-07-29T07:29:29;100468.81;;;19.51;100.00
5883;BME280;2967;51.488;6.618;2023-07-29T07:34:32;100478.44;;;19.78;100.00
5883;BME280;2967;51.488;6.618;2023-07-29T07:39:38;100520.81;;;20.16;100.00
5883;BME280;2967;51.488;6.618;2023-07-29T07:44:43;100507.50;;;19.98;100.00
5883;BME280;2967;51.488;6.618;2023-07-29T07:49:46;100516.47;;;20.23;100.00
5883;BME280;2967;51.488;6.618;2023-07-29T07:54:51;100501.69;;;20.43;100.00
5883;BME280;2967;51.488;6.618;2023-07-29T07:59:55;100522.13;;;20.76;100.00
5883;BME280;2967;51.488;6.618;2023-07-29T08:04:59;100510.22;;;20.70;100.00
5883;BME280;2967;51.488;6.618;2023-07-29T08:10:02;100520.81;;;20.80;100.00
5883;BME280;2967;51.488;6.618;2023-07-29T08:15:07;100455.78;;;20.68;100.00
5883;BME280;2967;51.488;6.618;2023-07-29T08:20:11;100470.03;;;20.77;100.00
5883;BME280;2967;51.488;6.618;2023-07-29T08:25:14;100483.47;;;21.01;100.00
5883;BME280;2967;51.488;6.618;2023-07-29T08:30:21;100486.78;;;21.11;100.00
5883;BME280;2967;51.488;6.618;2023-07-29T08:35:34;100511.16;;;21.48;100.00
5883;BME280;2967;51.488;6.618;2023-07-29T08:40:56;100509.63;;;21.53;100.00
5883;BME280;2967;51.488;6.618;2023-07-29T08:46:07;100519.19;;;21.63;100.00
5883;BME280;2967;51.488;6.618;2023-07-29T08:51:19;100518.75;;;21.44;100.00
5883;BME280;2967;51.488;6.618;2023-07-29T08:56:28;100479.38;;;21.13;100.00
5883;BME280;2967;51.488;6.618;2023-07-29T09:01:33;100467.84;;;20.80;100.00
5883;BME280;2967;51.488;6.618;2023-07-29T09:06:37;100484.34;;;20.77;100.00
5883;BME280;2967;51.488;6.618;2023-07-29T09:11:41;100483.16;;;20.80;100.00
5883;BME280;2967;51.488;6.618;2023-07-29T09:16:46;100468.69;;;20.81;100.00
5883;BME280;2967;51.488;6.618;2023-07-29T09:21:52;100552.38;;;21.02;100.00
5883;BME280;2967;51.488;6.618;2023-07-29T09:26:55;100490.53;;;20.94;100.00
5883;BME280;2967;51.488;6.618;2023-07-29T09:32:20;100548.72;;;21.41;100.00
5883;BME280;2967;51.488;6.618;2023-07-29T09:37:27;100488.06;;;21.31;100.00
5883;BME280;2967;51.488;6.618;2023-07-29T09:42:47;100475.75;;;21.36;100.00
5883;BME280;2967;51.488;6.618;2023-07-29T09:47:53;100537.19;;;21.63;100.00
5883;BME280;2967;51.488;6.618;2023-07-29T09:52:56;100477.69;;;21.50;100.00
5883;BME280;2967;51.488;6.618;2023-07-29T09:58:01;100501.09;;;21.80;100.00
5883;BME280;2967;51.488;6.618;2023-07-29T10:03:07;100495.53;;;22.04;100.00
5883;BME280;2967;51.488;6.618;2023-07-29T10:08:10;100517.94;;;22.04;100.00
5883;BME280;2967;51.488;6.618;2023-07-29T10:13:14;100508.31;;;22.10;100.00
5883;BME280;2967;51.488;6.618;2023-07-29T10:18:20;100489.41;;;22.18;100.00
5883;BME280;2967;51.488;6.618;2023-07-29T10:23:25;100486.75;;;22.10;100.00
5883;BME280;2967;51.488;6.618;2023-07-29T10:28:52;100513.69;;;22.32;100.00
5883;BME280;2967;51.488;6.618;2023-07-29T10:34:01;100514.19;;;22.13;100.00
5883;BME280;2967;51.488;6.618;2023-07-29T10:39:06;100518.03;;;22.19;100.00
5883;BME280;2967;51.488;6.618;2023-07-29T10:44:47;100510.53;;;22.29;100.00
5883;BME280;2967;51.488;6.618;2023-07-29T10:49:55;100499.44;;;22.46;100.00
5883;BME280;2967;51.488;6.618;2023-07-29T10:54:58;100463.84;;;22.28;100.00
5883;BME280;2967;51.488;6.618;2023-07-29T11:00:07;100446.38;;;22.24;100.00
5883;BME280;2967;51.488;6.618;2023-07-29T11:05:17;100501.34;;;22.46;100.00
5883;BME280;2967;51.488;6.618;2023-07-29T11:10:21;100511.19;;;22.53;100.00
5883;BME280;2967;51.488;6.618;2023-07-29T11:15:28;100484.84;;;22.41;100.00
5883;BME280;2967;51.488;6.618;2023-07-29T11:20:39;100447.97;;;22.41;100.00
5883;BME280;2967;51.488;6.618;2023-07-29T11:26:19;100407.19;;;22.36;100.00
5883;BME280;2967;51.488;6.618;2023-07-29T11:31:22;100507.72;;;23.11;100.00
5883;BME280;2967;51.488;6.618;2023-07-29T11:36:27;100466.09;;;23.13;100.00
5883;BME280;2967;51.488;6.618;2023-07-29T11:41:33;100481.31;;;23.35;100.00
5883;BME280;2967;51.488;6.618;2023-07-29T11:46:36;100475.66;;;23.30;100.00
5883;BME280;2967;51.488;6.618;2023-07-29T11:51:41;100495.84;;;23.20;100.00
5883;BME280;2967;51.488;6.618;2023-07-29T11:56:44;100464.00;;;22.86;100.00
5883;BME280;2967;51.488;6.618;2023-07-29T12:01:47;100454.63;;;22.97;100.00
5883;BME280;2967;51.488;6.618;2023-07-29T12:06:55;100477.13;;;23.18;100.00
5883;BME280;2967;51.488;6.618;2023-07-29T12:11:58;100486.56;;;23.22;100.00
5883;BME280;2967;51.488;6.618;2023-07-29T12:17:03;100492.69;;;23.31;100.00
5883;BME280;2967;51.488;6.618;2023-07-29T12:22:11;100465.50;;;23.32;100.00
5883;BME280;2967;51.488;6.618;2023-07-29T12:27:14;100495.66;;;23.50;100.00
5883;BME280;2967;51.488;6.618;2023-07-29T12:32:18;100487.63;;;23.57;100.00
5883;BME280;2967;51.488;6.618;2023-07-29T12:37:31;100374.25;;;22.92;100.00
5883;BME280;2967;51.488;6.618;2023-07-29T12:42:34;100486.88;;;23.84;100.00
5883;BME280;2967;51.488;6.618;2023-07-29T12:47:37;100434.31;;;23.65;100.00
5883;BME280;2967;51.488;6.618;2023-07-29T12:52:42;100452.88;;;23.89;100.00
5883;BME280;2967;51.488;6.618;2023-07-29T12:57:45;100469.75;;;23.91;100.00
5883;BME280;2967;51.488;6.618;2023-07-29T13:02:50;100421.38;;;23.61;100.00
5883;BME280;2967;51.488;6.618;2023-07-29T13:08:02;100481.41;;;23.77;100.00
5883;BME280;2967;51.488;6.618;2023-07-29T13:13:05;100490.56;;;23.62;100.00
5883;BME280;2967;51.488;6.618;2023-07-29T13:18:08;100407.63;;;22.91;100.00
5883;BME280;2967;51.488;6.618;2023-07-29T13:23:12;100473.16;;;23.14;100.00
5883;BME280;2967;51.488;6.618;2023-07-29T13:28:15;100423.25;;;22.52;100.00
5883;BME280;2967;51.488;6.618;2023-07-29T13:33:22;100511.69;;;22.71;100.00
5883;BME280;2967;51.488;6.618;2023-07-29T13:38:41;100535.28;;;22.32;100.00
5883;BME280;2967;51.488;6.618;2023-07-29T13:44:04;100544.03;;;22.04;100.00
5883;BME280;2967;51.488;6.618;2023-07-29T13:49:09;100572.31;;;21.77;100.00
5883;BME280;2967;51.488;6.618;2023-07-29T13:54:16;100593.78;;;21.55;100.00
5883;BME280;2967;51.488;6.618;2023-07-29T13:59:46;100580.75;;;21.04;100.00
5883;BME280;2967;51.488;6.618;2023-07-29T14:04:52;100576.25;;;20.73;100.00
5883;BME280;2967;51.488;6.618;2023-07-29T14:09:58;100588.00;;;20.72;100.00
5883;BME280;2967;51.488;6.618;2023-07-29T14:15:04;100512.94;;;20.14;100.00
5883;BME280;2967;51.488;6.618;2023-07-29T14:20:08;100576.34;;;21.27;100.00
5883;BME280;2967;51.488;6.618;2023-07-29T14:25:12;100539.06;;;21.55;100.00
5883;BME280;2967;51.488;6.618;2023-07-29T14:30:17;100493.94;;;21.73;100.00
5883;BME280;2967;51.488;6.618;2023-07-29T14:35:21;100405.38;;;21.47;100.00
5883;BME280;2967;51.488;6.618;2023-07-29T14:40:26;100505.78;;;22.08;100.00
5883;BME280;2967;51.488;6.618;2023-07-29T14:45:29;100543.13;;;22.42;100.00
5883;BME280;2967;51.488;6.618;2023-07-29T14:50:32;100549.56;;;22.10;100.00
5883;BME280;2967;51.488;6.618;2023-07-29T14:55:36;100541.75;;;21.63;100.00
5883;BME280;2967;51.488;6.618;2023-07-29T15:00:39;100542.63;;;21.55;100.00
5883;BME280;2967;51.488;6.618;2023-07-29T15:05:42;100542.16;;;21.44;100.00
5883;BME280;2967;51.488;6.618;2023-07-29T15:10:46;100526.56;;;21.31;100.00
5883;BME280;2967;51.488;6.618;2023-07-29T15:15:49;100534.50;;;21.25;100.00
5883;BME280;2967;51.488;6.618;2023-07-29T15:20:52;100496.72;;;21.02;100.00
5883;BME280;2967;51.488;6.618;2023-07-29T15:25:59;100482.06;;;21.21;100.00
5883;BME280;2967;51.488;6.618;2023-07-29T15:31:02;100530.63;;;21.66;100.00
5883;BME280;2967;51.488;6.618;2023-07-29T15:36:05;100530.28;;;21.68;100.00
5883;BME280;2967;51.488;6.618;2023-07-29T15:41:09;100531.06;;;21.85;100.00
5883;BME280;2967;51.488;6.618;2023-07-29T15:46:12;100522.75;;;21.56;100.00
5883;BME280;2967;51.488;6.618;2023-07-29T15:51:17;100526.53;;;21.39;100.00
5883;BME280;2967;51.488;6.618;2023-07-29T15:56:21;100310.25;;;20.41;100.00
5883;BME280;2967;51.488;6.618;2023-07-29T16:01:26;100510.38;;;21.39;100.00
5883;BME280;2967;51.488;6.618;2023-07-29T16:06:32;100517.41;;;21.48;100.00
5883;BME280;2967;51.488;6.618;2023-07-29T16:11:37;100502.44;;;21.46;100.00
5883;BME280;2967;51.488;6.618;2023-07-29T16:16:39;100510.63;;;21.60;100.00
5883;BME280;2967;51.488;6.618;2023-07-29T16:21:42;100499.47;;;21.63;100.00
5883;BME280;2967;51.488;6.618;2023-07-29T16:26:46;100513.13;;;21.70;100.00
5883;BME280;2967;51.488;6.618;2023-07-29T16:31:49;100495.03;;;21.48;100.00
5883;BME280;2967;51.488;6.618;2023-07-29T16:36:53;100478.88;;;21.17;100.00
5883;BME280;2967;51.488;6.618;2023-07-29T16:41:58;100489.94;;;21.22;100.00
5883;BME280;2967;51.488;6.618;2023-07-29T16:47:06;100511.91;;;21.42;100.00
5883;BME280;2967;51.488;6.618;2023-07-29T16:52:21;100489.59;;;21.25;100.00
5883;BME280;2967;51.488;6.618;2023-07-29T16:57:28;100471.47;;;21.11;100.00
5883;BME280;2967;51.488;6.618;2023-07-29T17:02:34;100498.22;;;21.05;100.00
5883;BME280;2967;51.488;6.618;2023-07-29T17:07:39;100492.50;;;21.08;100.00
5883;BME280;2967;51.488;6.618;2023-07-29T17:12:43;100486.44;;;21.14;100.00
5883;BME280;2967;51.488;6.618;2023-07-29T17:17:49;100499.97;;;20.74;100.00
5883;BME280;2967;51.488;6.618;2023-07-29T17:22:52;100515.75;;;20.93;100.00
5883;BME280;2967;51.488;6.618;2023-07-29T17:27:58;100524.16;;;20.74;100.00
5883;BME280;2967;51.488;6.618;2023-07-29T17:33:02;100501.50;;;20.04;100.00
5883;BME280;2967;51.488;6.618;2023-07-29T17:38:07;100476.09;;;19.99;100.00
5883;BME280;2967;51.488;6.618;2023-07-29T17:43:17;100345.72;;;19.24;100.00
5883;BME280;2967;51.488;6.618;2023-07-29T17:48:20;100490.94;;;20.11;100.00
5883;BME280;2967;51.488;6.618;2023-07-29T17:53:25;100441.50;;;19.56;100.00
5883;BME280;2967;51.488;6.618;2023-07-29T17:58:33;100485.81;;;19.76;100.00
5883;BME280;2967;51.488;6.618;2023-07-29T18:03:36;100455.94;;;19.63;100.00
5883;BME280;2967;51.488;6.618;2023-07-29T18:08:42;100481.44;;;19.67;100.00
5883;BME280;2967;51.488;6.618;2023-07-29T18:13:49;100450.69;;;19.37;100.00
5883;BME280;2967;51.488;6.618;2023-07-29T18:18:52;100398.78;;;19.13;100.00
5883;BME280;2967;51.488;6.618;2023-07-29T18:23:55;100345.53;;;18.77;100.00
5883;BME280;2967;51.488;6.618;2023-07-29T18:29:16;100300.50;;;18.39;100.00
5883;BME280;2967;51.488;6.618;2023-07-29T18:34:22;100503.19;;;19.48;100.00
5883;BME280;2967;51.488;6.618;2023-07-29T18:39:29;100525.38;;;19.66;100.00
5883;BME280;2967;51.488;6.618;2023-07-29T18:44:37;100457.75;;;19.13;100.00
5883;BME280;2967;51.488;6.618;2023-07-29T18:49:40;100472.09;;;19.29;100.00
5883;BME280;2967;51.488;6.618;2023-07-29T18:54:43;100510.88;;;19.43;100.00
5883;BME280;2967;51.488;6.618;2023-07-29T18:59:50;100540.06;;;19.46;100.00
5883;BME280;2967;51.488;6.618;2023-07-29T19:04:53;100540.34;;;19.35;100.00
5883;BME280;2967;51.488;6.618;2023-07-29T19:09:59;100549.06;;;19.37;100.00
5883;BME280;2967;51.488;6.618;2023-07-29T19:15:07;100476.78;;;18.94;100.00
5883;BME280;2967;51.488;6.618;2023-07-29T19:20:10;100551.75;;;19.37;100.00
5883;BME280;2967;51.488;6.618;2023-07-29T19:25:14;100560.00;;;19.43;100.00
5883;BME280;2967;51.488;6.618;2023-07-29T19:30:21;100535.31;;;19.32;100.00
5883;BME280;2967;51.488;6.618;2023-07-29T19:35:29;100563.69;;;19.42;100.00
5883;BME280;2967;51.488;6.618;2023-07-29T19:40:36;100516.06;;;19.11;100.00
5883;BME280;2967;51.488;6.618;2023-07-29T19:45:46;100567.56;;;19.40;100.00
5883;BME280;2967;51.488;6.618;2023-07-29T19:51:10;100572.06;;;19.39;100.00
5883;BME280;2967;51.488;6.618;2023-07-29T19:56:14;100567.31;;;19.33;100.00
5883;BME280;2967;51.488;6.618;2023-07-29T20:01:18;100451.81;;;18.60;100.00
5883;BME280;2967;51.488;6.618;2023-07-29T20:06:23;100574.81;;;19.22;100.00
5883;BME280;2967;51.488;6.618;2023-07-29T20:11:26;100573.59;;;19.16;100.00
5883;BME280;2967;51.488;6.618;2023-07-29T20:16:31;100570.72;;;19.10;100.00
5883;BME280;2967;51.488;6.618;2023-07-29T20:21:37;100543.63;;;18.95;100.00
5883;BME280;2967;51.488;6.618;2023-07-29T20:26:45;100519.88;;;18.75;100.00
5883;BME280;2967;51.488;6.618;2023-07-29T20:31:49;100566.97;;;19.03;100.00
5883;BME280;2967;51.488;6.618;2023-07-29T20:36:53;100568.97;;;19.01;100.00
5883;BME280;2967;51.488;6.618;2023-07-29T20:41:55;100525.75;;;18.78;100.00
5883;BME280;2967;51.488;6.618;2023-07-29T20:46:59;100527.84;;;18.67;100.00
5883;BME280;2967;51.488;6.618;2023-07-29T20:52:03;100529.53;;;18.68;100.00
5883;BME280;2967;51.488;6.618;2023-07-29T20:57:06;100572.53;;;18.84;100.00
5883;BME280;2967;51.488;6.618;2023-07-29T21:02:11;100555.38;;;18.77;100.00
5883;BME280;2967;51.488;6.618;2023-07-29T21:07:14;100553.72;;;18.76;100.00
5883;BME280;2967;51.488;6.618;2023-07-29T21:12:17;100577.53;;;18.79;100.00
5883;BME280;2967;51.488;6.618;2023-07-29T21:17:21;100573.69;;;18.81;100.00
5883;BME280;2967;51.488;6.618;2023-07-29T21:22:24;100586.81;;;18.67;100.00
5883;BME280;2967;51.488;6.618;2023-07-29T21:27:27;100592.16;;;18.67;100.00
5883;BME280;2967;51.488;6.618;2023-07-29T21:32:32;100596.16;;;18.63;100.00
5883;BME280;2967;51.488;6.618;2023-07-29T21:37:35;100600.91;;;18.69;100.00
5883;BME280;2967;51.488;6.618;2023-07-29T21:42:38;100599.06;;;18.70;100.00
5883;BME280;2967;51.488;6.618;2023-07-29T21:47:43;100592.88;;;18.69;100.00
5883;BME280;2967;51.488;6.618;2023-07-29T21:52:47;100566.78;;;18.36;100.00
5883;BME280;2967;51.488;6.618;2023-07-29T21:57:50;100567.97;;;18.24;100.00
5883;BME280;2967;51.488;6.618;2023-07-29T22:02:54;100569.91;;;18.32;100.00
5883;BME280;2967;51.488;6.618;2023-07-29T22:07:57;100562.94;;;18.21;100.00
5883;BME280;2967;51.488;6.618;2023-07-29T22:13:05;100627.69;;;18.52;100.00
5883;BME280;2967;51.488;6.618;2023-07-29T22:18:09;100626.19;;;18.49;100.00
5883;BME280;2967;51.488;6.618;2023-07-29T22:23:13;100605.69;;;18.13;100.00
5883;BME280;2967;51.488;6.618;2023-07-29T22:28:17;100570.78;;;17.88;100.00
5883;BME280;2967;51.488;6.618;2023-07-29T22:33:22;100641.97;;;18.25;100.00
5883;BME280;2967;51.488;6.618;2023-07-29T22:38:32;100662.91;;;18.12;100.00
5883;BME280;2967;51.488;6.618;2023-07-29T22:43:38;100641.38;;;17.87;100.00
5883;BME280;2967;51.488;6.618;2023-07-29T22:48:42;100597.22;;;17.27;100.00
5883;BME280;2967;51.488;6.618;2023-07-29T22:53:45;100674.22;;;17.79;100.00
5883;BME280;2967;51.488;6.618;2023-07-29T22:58:48;100680.91;;;17.56;100.00
5883;BME280;2967;51.488;6.618;2023-07-29T23:03:52;100688.25;;;17.54;100.00
5883;BME280;2967;51.488;6.618;2023-07-29T23:08:55;100677.84;;;17.42;100.00
5883;BME280;2967;51.488;6.618;2023-07-29T23:13:58;100488.91;;;16.31;100.00
5883;BME280;2967;51.488;6.618;2023-07-29T23:19:02;100690.66;;;17.48;100.00
5883;BME280;2967;51.488;6.618;2023-07-29T23:24:06;100688.16;;;17.37;100.00
5883;BME280;2967;51.488;6.618;2023-07-29T23:29:08;100693.47;;;17.27;100.00
5883;BME280;2967;51.488;6.618;2023-07-29T23:34:13;100698.72;;;17.19;100.00
5883;BME280;2967;51.488;6.618;2023-07-29T23:39:15;100654.44;;;16.98;100.00
5883;BME280;2967;51.488;6.618;2023-07-29T23:44:18;100687.47;;;17.16;100.00
5883;BME280;2967;51.488;6.618;2023-07-29T23:49:22;100568.13;;;16.12;100.00
5883;BME280;2967;51.488;6.618;2023-07-29T23:54:25;100486.69;;;15.61;100.00
5883;BME280;2967;51.488;6.618;2023-07-29T23:59:28;100650.66;;;16.53;100.00
